Latest Weather Observations for Hindmarsh Island

IDS60801

Issued at 8:35 pm CST Saturday 23 August 2014 (issued every 30 minutes, with the page automatically refreshed every 10 minutes)

About weather observations | Map of weather stations | Latest weather observations for SA | Other Formats
Station Details ID: 023894 Name: HINDMARSH ISLAND AWS Lat: -35.52 Lon: 138.82 Height: 11.0 m
Data from the previous 72 hours. | See also: Recent months at Hindmarsh Island
Date/Time
CST
Temp
°C
App
Temp
°C
Dew
Point
Rel
Hum
%
Delta-T
°C
Wind Press
QNH
hPa
Press
MSL
hPa
Rain
since 9 am
mm
Dir
 
Spd
km/h
Gust
km/h
Spd
kts
Gust
kts
23/08:30pm 11.4 8.5 8.3 81 1.5 WNW 13 15 7 8 1027.2 - 0.6
23/08:00pm 12.2 9.1 8.7 79 1.7 W 15 19 8 10 1026.9 - 0.6
23/07:30pm 12.7 9.7 9.3 80 1.7 W 15 20 8 11 1026.6 - 0.6
23/07:00pm 12.3 10.1 9.3 82 1.5 WNW 11 13 6 7 1026.2 - 0.6
23/06:30pm 13.1 12.0 9.9 81 1.6 W 6 13 3 7 1025.9 - 0.6
23/06:00pm 13.3 11.2 9.7 79 1.8 W 11 15 6 8 1025.7 1025.7 0.6
23/05:30pm 12.8 9.6 9.8 82 1.5 WSW 17 20 9 11 1025.3 - 0.6
23/05:00pm 14.1 11.2 9.7 75 2.3 SW 15 20 8 11 1024.9 - 0.2
23/04:30pm 15.6 11.9 8.1 61 3.8 WNW 17 26 9 14 1024.4 - 0.2
23/04:00pm 16.7 12.0 7.9 56 4.4 WNW 22 30 12 16 1023.9 - 0.2
23/03:30pm 16.6 10.8 8.1 57 4.3 WNW 28 37 15 20 1023.6 - 0.0
23/03:00pm 16.4 10.5 7.6 56 4.4 WNW 28 39 15 21 1023.4 1023.4 0.0
23/02:30pm 16.3 9.4 6.4 52 4.8 WNW 32 44 17 24 1023.2 - 0.0
23/02:00pm 16.1 9.2 7.3 56 4.4 WNW 33 46 18 25 1023.0 - 0.0
23/01:50pm 15.7 7.8 6.4 54 4.5 WNW 37 46 20 25 1022.9 - 0.0
23/01:30pm 17.1 10.4 7.5 53 4.8 W 32 41 17 22 1023.1 - 0.0
23/01:02pm 16.6 9.3 7.0 53 4.8 W 35 54 19 29 1022.9 - 0.0
23/01:00pm 16.6 8.7 6.4 51 5.0 WNW 37 54 20 29 1022.9 - 0.0
23/12:37pm 16.5 9.6 7.2 54 4.6 WNW 33 54 18 29 1022.7 - 0.0
23/12:30pm 16.6 10.1 8.1 57 4.3 WNW 32 43 17 23 1022.7 - 0.0
23/12:19pm 16.1 9.6 8.3 60 4.0 WNW 32 50 17 27 1022.7 - 0.0
23/12:13pm 15.8 10.5 9.7 67 3.2 WNW 28 39 15 21 1022.8 - 0.0
23/12:00pm 14.6 12.1 11.2 80 1.8 N 15 20 8 11 1023.2 1023.2 0.0
23/11:30am 13.3 11.5 10.7 84 1.4 NNW 11 15 6 8 1023.4 - 0.0
23/11:00am 12.4 9.3 10.3 87 1.1 NW 17 20 9 11 1023.5 - 0.0
23/10:30am 12.6 7.3 10.0 84 1.3 WNW 28 39 15 21 1023.4 - 0.0
23/10:00am 15.7 7.0 7.7 59 4.0 WNW 43 59 23 32 1022.2 - 0.0
23/09:30am 15.9 7.0 4.9 48 5.2 NW 41 59 22 32 1021.2 - 0.0
23/09:02am 16.7 7.0 3.0 40 6.2 NW 43 63 23 34 1020.6 - 0.0
23/09:00am 16.7 7.4 3.0 40 6.2 NW 41 57 22 31 1020.7 1020.7 0.0
23/08:30am 16.8 8.9 2.4 38 6.5 NW 33 52 18 28 1020.7 - 0.0
23/08:06am 17.2 10.3 2.4 37 6.7 NNW 28 46 15 25 1021.0 - 0.0
23/08:00am 17.5 11.8 3.0 38 6.7 NNW 22 35 12 19 1021.1 - 0.0
23/07:59am 17.5 11.5 3.4 39 6.5 NNW 24 35 13 19 1021.1 - 0.0
23/07:30am 12.5 9.1 5.9 64 3.1 NNE 13 17 7 9 1021.3 - 0.0
23/07:00am 12.5 8.7 5.7 63 3.2 NNE 15 19 8 10 1020.9 - 0.0
23/06:30am 12.6 8.0 5.5 62 3.3 NNE 19 24 10 13 1020.5 - 0.0
23/06:00am 12.6 7.7 5.3 61 3.4 NNE 20 24 11 13 1020.3 1020.3 0.0
23/05:30am 12.7 7.0 5.1 60 3.5 N 24 32 13 17 1019.9 - 0.0
23/05:00am 12.5 7.6 5.2 61 3.4 N 20 30 11 16 1019.9 - 0.0
23/04:30am 12.4 6.7 5.1 61 3.4 NNE 24 32 13 17 1020.0 - 0.0
23/04:00am 12.1 7.4 5.0 62 3.3 NNE 19 24 10 13 1020.3 - 0.0
23/03:30am 12.4 7.0 4.4 58 3.6 NE 22 28 12 15 1020.4 - 0.0
23/03:00am 11.1 6.3 5.4 68 2.6 NNE 20 26 11 14 1020.7 1020.7 0.0
23/02:30am 10.7 5.2 4.2 64 2.9 NNE 22 28 12 15 1021.1 - 0.0
23/02:00am 9.6 4.6 4.4 70 2.3 NE 20 24 11 13 1021.5 - 0.0
23/01:30am 9.5 4.5 3.7 67 2.5 NNE 19 20 10 11 1021.7 - 0.0
23/01:00am 9.9 5.2 3.4 64 2.8 NNE 17 20 9 11 1021.8 - 0.0
23/12:30am 10.0 5.4 3.7 65 2.8 N 17 20 9 11 1021.9 - 0.0
23/12:00am 10.2 6.1 4.1 66 2.7 N 15 24 8 13 1022.2 1022.2 0.0
 
Date/Time
CST
Temp
°C
App
Temp
°C
Dew
Point
Rel
Hum
%
Delta-T
°C
Wind Press
QNH
hPa
Press
MSL
hPa
Rain
since 9 am
mm
Dir
 
Spd
km/h
Gust
km/h
Spd
kts
Gust
kts
22/11:30pm 10.3 6.1 4.0 65 2.8 N 15 17 8 9 1022.0 - 0.0
22/11:00pm 10.4 5.7 3.4 62 3.1 N 17 20 9 11 1022.2 - 0.0
22/10:30pm 9.5 4.7 4.5 71 2.2 NNE 19 24 10 13 1022.7 - 0.0
22/10:00pm 9.1 4.1 3.5 68 2.4 NNE 19 22 10 12 1022.9 - 0.0
22/09:30pm 9.4 5.5 3.6 67 2.5 NE 13 17 7 9 1023.1 - 0.0
22/09:00pm 11.4 8.5 4.6 63 3.1 NNE 9 11 5 6 1023.3 1023.3 0.0
22/08:30pm 11.9 9.0 4.9 62 3.2 NNE 9 11 5 6 1023.3 - 0.0
22/08:00pm 11.5 8.2 4.3 61 3.2 NNE 11 15 6 8 1023.2 - 0.0
22/07:30pm 12.6 8.3 3.5 54 4.1 NNE 15 19 8 10 1023.2 - 0.0
22/07:00pm 13.4 8.8 3.5 51 4.4 NNE 17 20 9 11 1023.2 - 0.0
22/06:30pm 14.3 9.8 4.3 51 4.6 NNE 17 20 9 11 1022.9 - 0.0
22/06:00pm 15.4 10.5 3.9 46 5.3 NNE 19 28 10 15 1022.5 1022.5 0.0
22/05:30pm 16.7 11.7 3.7 42 6.0 NNE 19 26 10 14 1022.3 - 0.0
22/05:00pm 18.1 13.1 3.6 38 6.8 NNE 19 22 10 12 1022.2 - 0.0
22/04:30pm 19.1 13.7 2.5 33 7.7 NNE 20 28 11 15 1022.1 - 0.0
22/04:00pm 19.8 14.4 2.6 32 8.0 NNE 20 28 11 15 1022.1 - 0.0
22/03:30pm 20.3 14.6 2.6 31 8.3 NNE 22 28 12 15 1022.2 - 0.0
22/03:00pm 20.6 15.1 2.0 29 8.6 NNE 20 30 11 16 1022.4 1022.4 0.0
22/02:30pm 20.2 13.9 1.6 29 8.5 NNE 24 32 13 17 1022.8 - 0.0
22/02:00pm 20.9 14.8 2.7 30 8.5 NNE 24 32 13 17 1023.1 - 0.0
22/01:30pm 20.2 13.4 1.1 28 8.6 NNE 26 35 14 19 1023.5 - 0.0
22/01:00pm 20.1 13.0 1.5 29 8.5 NNE 28 35 15 19 1023.9 - 0.0
22/12:30pm 19.9 12.4 1.4 29 8.4 NNE 30 37 16 20 1024.5 - 0.0
22/12:00pm 19.6 11.7 1.1 29 8.3 NNE 32 41 17 22 1025.0 1025.0 0.0
22/11:30am 20.2 13.4 3.0 32 8.1 NNE 28 35 15 19 1025.5 - 0.0
22/11:00am 18.7 12.2 2.9 35 7.3 NNE 26 35 14 19 1025.8 - 0.0
22/10:30am 18.2 11.9 4.0 39 6.7 NNE 26 37 14 20 1026.1 - 0.0
22/10:00am 16.3 11.0 7.0 54 4.6 NNE 24 30 13 16 1026.2 - 0.0
22/09:30am 14.4 9.5 7.0 61 3.6 NE 22 28 12 15 1026.4 - 0.0
22/09:00am 12.6 8.5 6.2 65 3.0 NNE 17 24 9 13 1026.5 1026.5 0.2
22/08:30am 11.3 6.2 6.2 71 2.4 NE 22 26 12 14 1026.5 - 0.2
22/08:00am 10.4 5.3 5.8 73 2.1 NNE 22 28 12 15 1026.4 - 0.2
22/07:30am 10.2 5.4 5.4 72 2.2 NNE 20 28 11 15 1026.1 - 0.2
22/07:00am 9.9 5.0 5.3 73 2.1 NE 20 26 11 14 1025.6 - 0.2
22/06:30am 9.4 4.6 5.4 76 1.8 NE 20 24 11 13 1025.2 - 0.2
22/06:00am 9.8 5.2 5.6 75 1.9 NE 19 24 10 13 1024.9 1024.9 0.2
22/05:30am 9.5 4.7 5.5 76 1.8 NE 20 24 11 13 1024.8 - 0.2
22/05:00am 8.9 4.2 5.3 78 1.6 NE 19 22 10 12 1024.8 - 0.2
22/04:30am 8.5 3.8 5.1 79 1.5 NE 19 20 10 11 1024.7 - 0.2
22/04:00am 8.5 3.8 5.1 79 1.5 NE 19 20 10 11 1024.8 - 0.2
22/03:30am 8.6 3.8 5.5 81 1.4 NE 20 22 11 12 1024.7 - 0.2
22/03:00am 9.0 4.4 5.6 79 1.5 NE 19 20 10 11 1024.8 1024.8 0.2
22/02:30am 9.3 4.5 5.5 77 1.7 NE 20 22 11 12 1025.1 - 0.2
22/02:00am 8.6 3.6 4.8 77 1.7 NE 20 24 11 13 1025.4 - 0.2
22/01:30am 8.7 3.9 4.9 77 1.7 NE 19 22 10 12 1025.8 - 0.2
22/01:00am 9.1 4.3 4.9 75 1.9 NNE 19 20 10 11 1025.9 - 0.2
22/12:30am 9.5 4.9 5.7 77 1.7 NNE 19 20 10 11 1025.9 - 0.2
22/12:00am 9.6 5.0 5.4 75 1.9 NNE 19 22 10 12 1026.0 1026.0 0.2
 
Date/Time
CST
Temp
°C
App
Temp
°C
Dew
Point
Rel
Hum
%
Delta-T
°C
Wind Press
QNH
hPa
Press
MSL
hPa
Rain
since 9 am
mm
Dir
 
Spd
km/h
Gust
km/h
Spd
kts
Gust
kts
21/11:30pm 9.8 5.6 5.6 75 1.9 N 17 19 9 10 1026.0 - 0.2
21/11:00pm 10.4 5.8 5.8 73 2.1 NNE 19 24 10 13 1026.0 - 0.2
21/10:30pm 10.3 5.8 6.1 75 1.9 N 19 20 10 11 1026.0 - 0.2
21/10:00pm 10.3 6.3 6.5 77 1.8 NNE 17 20 9 11 1026.1 - 0.2
21/09:30pm 10.7 6.7 6.5 75 2.0 N 17 19 9 10 1026.0 - 0.2
21/09:00pm 8.8 6.2 6.1 83 1.2 NE 9 13 5 7 1025.9 1025.9 0.2
21/08:30pm 10.5 7.8 7.4 81 1.5 NNE 11 15 6 8 1025.9 - 0.2
21/08:00pm 8.9 4.4 6.2 83 1.2 ENE 19 20 10 11 1025.6 - 0.2
21/07:30pm 9.6 5.1 6.3 80 1.5 E 19 20 10 11 1025.6 - 0.2
21/07:00pm 9.9 5.8 6.4 79 1.6 E 17 20 9 11 1025.4 - 0.2
21/06:30pm 10.8 7.4 6.0 72 2.2 E 13 15 7 8 1025.3 - 0.2
21/06:00pm 12.2 9.3 6.3 67 2.8 ESE 11 13 6 7 1025.0 1025.0 0.2
21/05:30pm 13.7 10.8 6.3 61 3.5 E 11 13 6 7 1024.8 - 0.2
21/05:00pm 15.4 11.6 5.6 52 4.7 E 15 17 8 9 1024.4 - 0.2
21/04:30pm 16.3 12.0 5.3 48 5.3 E 17 20 9 11 1024.2 - 0.2
21/04:00pm 16.8 11.9 5.1 46 5.6 E 20 24 11 13 1024.0 - 0.2
21/03:30pm 17.1 12.5 5.7 47 5.5 E 19 24 10 13 1024.0 - 0.2
21/03:00pm 17.4 13.1 5.4 45 5.8 ENE 17 28 9 15 1024.2 1024.2 0.2
21/02:30pm 17.4 13.4 5.0 44 5.9 E 15 20 8 11 1024.4 - 0.2
21/02:00pm 17.1 14.0 5.4 46 5.6 ENE 11 15 6 8 1024.6 - 0.2
21/01:30pm 16.9 13.3 6.7 51 5.0 ENE 15 22 8 12 1024.8 - 0.0
21/12:00pm - - - - - - - - - - - - -
21/11:00am 13.0 8.3 6.1 63 3.3 NE 20 26 11 14 1027.0 - 0.0
21/10:30am 11.9 7.0 5.3 64 3.0 NE 20 26 11 14 1027.3 - 0.0
21/10:00am 11.3 7.2 6.0 70 2.5 NE 17 20 9 11 1027.5 - 0.0
21/09:30am 9.8 5.4 5.0 72 2.2 NE 17 20 9 11 1027.8 - 0.0
21/09:00am 8.7 4.3 4.7 76 1.8 NNE 17 20 9 11 1027.9 1027.9 0.2
21/08:30am 7.8 4.9 4.7 81 1.4 NNE 9 11 5 6 1028.0 - 0.2
21/08:00am 6.3 3.3 4.1 86 0.9 N 9 11 5 6 1027.9 - 0.2
21/07:30am 5.1 2.3 3.3 88 0.7 N 7 9 4 5 1027.8 - 0.2
21/07:00am 4.1 1.1 2.1 87 0.8 NNE 7 9 4 5 1027.7 - 0.2
21/06:30am 4.5 0.8 2.5 87 0.8 N 11 11 6 6 1027.4 - 0.2
21/06:00am 4.9 1.3 3.1 88 0.7 N 11 13 6 7 1027.3 1027.3 0.2
21/05:30am 4.8 1.9 2.7 86 0.9 N 7 9 4 5 1027.3 - 0.0
21/05:00am 4.9 1.7 2.8 86 0.9 N 9 11 5 6 1027.2 - 0.0
21/04:30am 5.0 1.8 2.9 86 0.9 N 9 11 5 6 1027.0 - 0.0
21/04:00am 5.6 2.9 3.8 88 0.8 N 7 9 4 5 1027.0 - 0.0
21/03:30am 5.7 2.3 3.9 88 0.8 N 11 13 6 7 1027.0 - 0.0
21/03:00am 6.0 3.0 4.0 87 0.8 N 9 9 5 5 1027.1 1027.1 0.0
21/02:30am 6.1 3.1 3.9 86 0.9 N 9 11 5 6 1027.2 - 0.0
21/02:00am 6.3 3.3 4.1 86 0.9 N 9 11 5 6 1027.3 - 0.0
21/01:30am 6.2 3.5 3.7 84 1.1 N 7 9 4 5 1027.4 - 0.0
21/01:00am 6.8 3.8 4.3 84 1.1 NNW 9 9 5 5 1027.6 - 0.0
21/12:30am 6.9 4.0 4.4 84 1.1 N 9 11 5 6 1027.6 - 0.0
21/12:00am 7.3 3.6 4.3 81 1.3 NE 13 15 7 8 1027.6 1027.6 0.0
 
Date/Time
CST
Temp
°C
App
Temp
°C
Dew
Point
Rel
Hum
%
Delta-T
°C
Wind Press
QNH
hPa
Press
MSL
hPa
Rain
since 9 am
mm
Dir
 
Spd
km/h
Gust
km/h
Spd
kts
Gust
kts
20/11:30pm 6.8 3.0 3.9 82 1.2 E 13 15 7 8 1027.6 - 0.0
20/11:00pm 7.0 3.6 4.1 82 1.2 E 11 13 6 7 1027.7 - 0.0
20/10:30pm 7.2 3.5 4.5 83 1.2 E 13 15 7 8 1027.7 - 0.0
20/10:00pm 7.0 2.9 4.1 82 1.2 E 15 15 8 8 1027.8 - 0.0
20/09:30pm 7.0 2.8 4.0 81 1.3 E 15 17 8 9 1027.8 - 0.0
20/09:00pm 7.6 3.5 4.2 79 1.5 E 15 17 8 9 1027.9 1027.9 0.0

Other Formats:

Comma delimited format used in spreadsheet applications
http://www.bom.gov.au/fwo/IDS60801/IDS60801.94677.axf

JavaScript Object Notation format (JSON) in row-major order
http://www.bom.gov.au/fwo/IDS60801/IDS60801.94677.json